Time;durP1;ratioP1;P1;durP2;ratioP2;P2;SDS_P1;SDS_P2;PMS_P1;PMS_P2;Temp;Humidity;BMP_temperature;BMP_pressure;BME280_temperature;BME280_humidity;BME280_pressure;Samples;Min_cycle;Max_cycle;Signal;HPM_P1;HPM_P2
2022/02/08 00:01:28;;;;;;;4.22;1.27;;;;;;;4.83;62.72;98580.59;4934633;28;20677;-84
2022/02/08 00:03:54;;;;;;;5.60;1.50;;;;;;;4.87;63.01;98564.63;4936711;28;20404;-84
2022/02/08 00:08:54;;;;;;;8.05;1.95;;;;;;;5.06;62.26;98581.41;4952239;28;20110;-84
2022/02/08 00:11:25;;;;;;;4.53;1.10;;;;;;;4.95;62.09;98584.41;4951362;28;20270;-83
2022/02/08 00:13:51;;;;;;;5.05;1.70;;;;;;;4.93;62.85;98591.50;4935044;28;20883;-84
2022/02/08 00:16:16;;;;;;;4.85;1.58;;;;;;;4.95;62.61;98574.09;4948746;28;20260;-84
2022/02/08 00:18:41;;;;;;;3.72;1.10;;;;;;;4.99;63.26;98595.19;4946652;28;20324;-84
2022/02/08 00:21:07;;;;;;;9.77;1.85;;;;;;;4.93;63.24;98598.44;4948955;28;20278;-85
2022/02/08 00:23:32;;;;;;;8.38;3.28;;;;;;;4.87;62.92;98587.06;4951932;28;20507;-87
2022/02/08 00:25:58;;;;;;;5.95;1.95;;;;;;;4.91;63.29;98588.31;4930999;28;20193;-84
2022/02/08 00:28:23;;;;;;;4.07;1.17;;;;;;;4.88;62.91;98586.88;4937949;28;20778;-84
2022/02/08 00:30:49;;;;;;;3.22;1.13;;;;;;;4.89;63.40;98592.84;4948529;28;20753;-85
2022/02/08 00:33:14;;;;;;;2.95;1.08;;;;;;;4.92;63.06;98594.25;4945178;28;20246;-84
2022/02/08 00:35:39;;;;;;;6.05;1.40;;;;;;;4.91;63.04;98597.81;4932211;28;20662;-84
2022/02/08 00:38:05;;;;;;;5.53;2.03;;;;;;;4.54;63.49;98566.63;4933002;28;20291;-86
2022/02/08 00:40:30;;;;;;;7.07;1.20;;;;;;;4.80;63.22;98588.72;4963559;28;20286;-84
2022/02/08 00:42:57;;;;;;;4.65;1.30;;;;;;;4.74;62.94;98571.34;4949580;28;20663;-84
2022/02/08 00:48:17;;;;;;;5.20;1.50;;;;;;;4.86;63.23;98580.28;4954040;28;20345;-84
2022/02/08 00:50:49;;;;;;;9.07;1.77;;;;;;;4.81;62.99;98582.56;4928966;28;20192;-85
2022/02/08 00:53:15;;;;;;;9.50;1.45;;;;;;;4.68;63.24;98578.78;4965022;28;20080;-84
2022/02/08 00:55:40;;;;;;;4.30;2.13;;;;;;;4.71;63.24;98580.19;4951988;28;20284;-85
2022/02/08 00:58:06;;;;;;;6.47;1.50;;;;;;;4.68;63.18;98568.47;4948883;28;20300;-84
2022/02/08 01:00:31;;;;;;;8.02;1.92;;;;;;;4.76;62.83;98585.66;4945873;28;20224;-85
2022/02/08 01:02:58;;;;;;;3.53;1.30;;;;;;;4.76;62.91;98579.69;4960498;28;20292;-84
2022/02/08 01:05:24;;;;;;;6.75;2.35;;;;;;;4.74;62.94;98577.28;4918001;28;20284;-84
2022/02/08 01:07:49;;;;;;;6.22;1.80;;;;;;;4.60;63.50;98565.94;4922625;28;20369;-85
2022/02/08 01:10:18;;;;;;;5.55;1.20;;;;;;;4.68;63.48;98573.63;4935444;28;20189;-84
2022/02/08 01:12:43;;;;;;;5.53;1.50;;;;;;;4.62;63.45;98566.56;4935293;28;20693;-85
2022/02/08 01:15:09;;;;;;;6.88;1.98;;;;;;;4.58;63.31;98575.63;4920590;28;20044;-85
2022/02/08 01:17:37;;;;;;;4.32;1.45;;;;;;;4.47;63.80;98565.69;4935885;28;20246;-84
2022/02/08 01:20:08;;;;;;;5.07;1.23;;;;;;;4.59;63.06;98574.66;4935641;28;20204;-84
2022/02/08 01:22:37;;;;;;;5.85;1.60;;;;;;;4.38;64.21;98562.34;4950789;28;20596;-85
2022/02/08 01:25:07;;;;;;;9.07;1.85;;;;;;;4.43;63.81;98557.50;4961114;28;20211;-84
2022/02/08 01:27:37;;;;;;;6.05;2.20;;;;;;;4.30;63.75;98554.66;4963632;28;20299;-84
2022/02/08 01:30:13;;;;;;;5.68;1.60;;;;;;;4.58;64.08;98575.63;4933650;28;20283;-84
2022/02/08 01:34:05;;;;;;;6.70;1.60;;;;;;;4.60;63.88;98568.50;4916784;28;20200;-85
2022/02/08 01:38:12;;;;;;;10.48;2.47;;;;;;;4.58;64.09;98562.72;4947090;28;20620;-85
2022/02/08 01:51:07;;;;;;;8.40;2.65;;;;;;;4.67;64.21;98564.25;4963717;28;20357;-84
2022/02/08 01:53:33;;;;;;;4.18;1.60;;;;;;;4.66;64.36;98565.25;4935698;28;20349;-84
2022/02/08 01:55:59;;;;;;;6.53;2.38;;;;;;;4.75;64.31;98562.63;4938485;28;20169;-85
2022/02/08 01:58:24;;;;;;;7.18;2.25;;;;;;;4.70;63.39;98560.56;4932652;28;20055;-84
2022/02/08 02:00:53;;;;;;;7.45;1.70;;;;;;;4.81;63.82;98560.13;4945047;28;20200;-84
2022/02/08 02:03:19;;;;;;;5.20;2.00;;;;;;;4.81;63.90;98559.34;4924804;28;20539;-83
2022/02/08 02:05:44;;;;;;;6.07;1.80;;;;;;;4.75;63.72;98554.88;4952624;28;20435;-84
2022/02/08 02:08:10;;;;;;;5.05;2.05;;;;;;;4.66;63.79;98543.78;4935909;28;20114;-84
2022/02/08 02:10:36;;;;;;;7.22;2.00;;;;;;;4.91;63.48;98549.59;4948068;28;20278;-84
2022/02/08 02:13:06;;;;;;;10.15;2.47;;;;;;;4.90;63.37;98554.91;4962239;28;20711;-84
2022/02/08 02:15:32;;;;;;;5.03;1.50;;;;;;;4.95;63.40;98547.47;4950844;28;20203;-84
2022/02/08 02:17:58;;;;;;;6.35;1.83;;;;;;;4.82;63.26;98542.91;4938002;28;20187;-84
2022/02/08 02:20:23;;;;;;;8.45;1.77;;;;;;;5.00;63.69;98551.16;4952931;28;20326;-85
2022/02/08 02:22:49;;;;;;;8.77;2.40;;;;;;;4.94;63.46;98546.66;4936212;28;20162;-84
2022/02/08 02:25:21;;;;;;;8.68;1.73;;;;;;;4.75;64.46;98562.63;4948399;28;20102;-84
2022/02/08 02:27:49;;;;;;;4.90;1.63;;;;;;;4.92;63.51;98553.78;4921999;28;20250;-84
2022/02/08 02:30:15;;;;;;;5.15;1.95;;;;;;;5.00;63.38;98551.16;4929812;28;20246;-84
2022/02/08 02:32:40;;;;;;;14.88;2.63;;;;;;;4.91;63.42;98549.59;4958167;28;20184;-84
2022/02/08 02:35:06;;;;;;;7.55;2.35;;;;;;;4.87;63.84;98553.50;4959977;28;20212;-85
2022/02/08 02:37:31;;;;;;;5.38;1.75;;;;;;;4.96;63.61;98552.44;4949941;28;20579;-86
2022/02/08 02:39:57;;;;;;;10.32;1.67;;;;;;;4.96;63.59;98544.72;4947961;28;20306;-84
2022/02/08 02:42:22;;;;;;;7.13;1.70;;;;;;;5.03;63.35;98550.78;4950869;28;20603;-83
2022/02/08 02:44:48;;;;;;;8.45;2.35;;;;;;;5.08;63.19;98552.84;4967465;28;20260;-83
2022/02/08 02:47:13;;;;;;;8.77;2.30;;;;;;;5.18;62.86;98557.75;4950797;28;20220;-84
2022/02/08 02:49:39;;;;;;;5.07;1.60;;;;;;;5.09;63.54;98557.03;4935528;28;20247;-84
2022/02/08 02:52:07;;;;;;;8.55;1.50;;;;;;;5.07;63.29;98540.91;4935429;28;20767;-84
2022/02/08 02:54:32;;;;;;;5.93;1.30;;;;;;;5.13;62.83;98552.31;4936739;28;20183;-83
2022/02/08 02:57:00;;;;;;;6.07;1.70;;;;;;;5.21;63.48;98552.25;4929568;28;20655;-84
2022/02/08 02:59:26;;;;;;;5.88;2.30;;;;;;;5.20;62.76;98541.09;4951798;28;20204;-84
2022/02/08 03:20:30;;;;;;;10.80;3.17;;;;;;;5.13;63.45;98552.31;4958441;28;20204;-85
2022/02/08 03:22:56;;;;;;;9.98;2.58;;;;;;;5.26;63.50;98555.13;4939099;28;20185;-85
2022/02/08 03:25:21;;;;;;;8.98;2.40;;;;;;;4.93;64.26;98550.22;4938273;28;20679;-84
2022/02/08 03:27:46;;;;;;;9.07;1.85;;;;;;;5.12;64.09;98535.22;4937316;28;20317;-85
2022/02/08 03:30:12;;;;;;;6.53;1.85;;;;;;;5.27;63.08;98545.59;4934732;28;20106;-84
2022/02/08 03:32:37;;;;;;;12.48;2.63;;;;;;;5.29;63.35;98544.41;4933136;28;20721;-84
2022/02/08 03:35:04;;;;;;;8.68;1.67;;;;;;;5.29;63.64;98554.75;4931027;28;20644;-84
2022/02/08 03:37:32;;;;;;;6.18;1.65;;;;;;;5.28;63.23;98557.50;4934766;28;20292;-85
2022/02/08 03:40:12;;;;;;;6.25;1.92;;;;;;;5.34;63.44;98561.97;4952588;28;20573;-84
2022/02/08 03:42:46;;;;;;;6.47;2.80;;;;;;;5.37;63.06;98559.84;4946541;28;20193;-84
2022/02/08 03:45:14;;;;;;;4.65;1.63;;;;;;;5.33;63.96;98556.00;4969825;28;20239;-85
2022/02/08 03:47:40;;;;;;;6.50;1.88;;;;;;;5.37;63.57;98559.03;4933905;28;20281;-86
2022/02/08 03:50:06;;;;;;;5.38;2.38;;;;;;;5.27;63.50;98566.25;4940535;28;20273;-84
2022/02/08 03:52:31;;;;;;;5.47;1.70;;;;;;;5.39;63.25;98550.13;4940157;28;20280;-83
2022/02/08 03:54:57;;;;;;;7.70;1.67;;;;;;;5.48;63.40;98563.75;4955796;28;20625;-83
2022/02/08 03:57:24;;;;;;;6.72;1.48;;;;;;;5.49;63.29;98572.31;4936745;28;20228;-84
2022/02/08 03:59:50;;;;;;;12.35;2.10;;;;;;;5.58;63.28;98568.66;4935640;28;20219;-85
2022/02/08 04:02:37;;;;;;;5.30;1.35;;;;;;;5.52;63.06;98571.94;4933173;28;20193;-85
2022/02/08 04:07:44;;;;;;;8.82;1.40;;;;;;;5.46;63.66;98557.19;4936856;28;20383;-84
2022/02/08 04:10:13;;;;;;;5.47;1.27;;;;;;;5.49;63.34;98538.75;4936158;28;20288;-83
2022/02/08 04:15:25;;;;;;;7.18;1.48;;;;;;;5.38;63.34;98548.53;4970515;28;20701;-84
2022/02/08 04:34:18;;;;;;;5.45;1.80;;;;;;;5.70;63.58;98551.75;4951728;28;20196;-85
2022/02/08 04:42:16;;;;;;;8.45;1.80;;;;;;;5.77;63.17;98559.59;4952343;28;20282;-84
2022/02/08 04:44:48;;;;;;;4.90;1.67;;;;;;;5.58;63.85;98553.16;4955304;28;20408;-85
2022/02/08 04:50:03;;;;;;;11.70;2.58;;;;;;;5.68;64.29;98558.09;4907301;28;20180;-84
2022/02/08 04:52:30;;;;;;;8.02;2.20;;;;;;;5.72;63.84;98554.94;4931747;28;20182;-84
2022/02/08 04:57:49;;;;;;;5.07;1.60;;;;;;;5.55;64.31;98559.50;4970096;28;20504;-85
2022/02/08 05:43:15;;;;;;;5.68;1.77;;;;;;;5.81;66.33;98553.09;4935779;28;20535;-86
2022/02/08 05:48:26;;;;;;;7.30;2.33;;;;;;;5.86;66.40;98558.53;4953360;28;20203;-85
2022/02/08 05:51:02;;;;;;;5.05;2.13;;;;;;;5.83;66.73;98545.97;4957559;28;20199;-85
2022/02/08 05:53:41;;;;;;;7.75;2.25;;;;;;;5.89;66.14;98540.06;4934765;28;20294;-85
2022/02/08 05:56:07;;;;;;;10.45;2.00;;;;;;;5.89;65.97;98539.25;4952523;28;20087;-84
2022/02/08 05:58:33;;;;;;;7.03;1.70;;;;;;;6.06;65.20;98545.84;4909235;28;20278;-85
2022/02/08 06:00:58;;;;;;;6.05;1.63;;;;;;;5.96;65.64;98540.16;4944818;28;20242;-84
2022/02/08 06:03:27;;;;;;;7.32;1.65;;;;;;;5.88;65.59;98548.81;4922701;28;20376;-85
2022/02/08 06:05:52;;;;;;;6.50;1.70;;;;;;;6.11;65.09;98551.28;4947295;28;20722;-85
2022/02/08 06:08:18;;;;;;;6.35;2.20;;;;;;;5.85;65.46;98544.00;4931476;28;20193;-86
2022/02/08 06:10:50;;;;;;;7.82;1.88;;;;;;;5.97;65.13;98552.91;4932099;28;20256;-86
2022/02/08 06:13:16;;;;;;;6.03;1.75;;;;;;;5.94;64.74;98555.03;4952996;28;20208;-86
2022/02/08 06:15:44;;;;;;;7.80;2.15;;;;;;;5.94;64.85;98550.66;4950473;28;20203;-86
2022/02/08 06:18:10;;;;;;;6.97;1.70;;;;;;;5.99;64.74;98560.50;4927935;28;20282;-86
2022/02/08 06:20:35;;;;;;;5.97;1.77;;;;;;;6.00;64.80;98556.94;4932967;28;20238;-85
2022/02/08 06:23:01;;;;;;;7.43;2.40;;;;;;;5.99;63.86;98545.78;4948872;28;20224;-86
2022/02/08 06:25:27;;;;;;;7.50;2.10;;;;;;;6.08;64.08;98568.94;4932635;28;20630;-85
2022/02/08 06:27:52;;;;;;;6.43;1.63;;;;;;;6.19;63.83;98560.75;4947241;28;20283;-83
2022/02/08 06:30:21;;;;;;;4.43;1.50;;;;;;;5.98;63.89;98564.88;4933447;28;20282;-87
2022/02/08 06:32:47;;;;;;;6.18;1.45;;;;;;;6.10;64.11;98567.81;4918005;28;20724;-85
2022/02/08 06:35:20;;;;;;;9.07;1.48;;;;;;;6.16;64.36;98559.31;4933524;28;20289;-88
2022/02/08 06:37:46;;;;;;;6.28;1.80;;;;;;;6.11;64.31;98564.22;4926169;28;20338;-85
2022/02/08 06:40:12;;;;;;;6.68;1.70;;;;;;;6.23;64.06;98567.13;4933715;28;20208;-85
2022/02/08 06:42:40;;;;;;;6.43;1.40;;;;;;;6.10;64.70;98572.16;4949656;28;20686;-86
2022/02/08 06:45:07;;;;;;;6.85;1.73;;;;;;;6.10;64.25;98566.97;4953226;28;20635;-85
2022/02/08 06:47:32;;;;;;;9.55;2.35;;;;;;;6.25;63.67;98560.00;4934626;28;20723;-85
2022/02/08 06:49:58;;;;;;;8.32;1.75;;;;;;;6.19;64.61;98561.53;4933519;28;20283;-86
2022/02/08 06:52:24;;;;;;;11.75;2.40;;;;;;;6.19;65.26;98565.91;4937347;28;20187;-86
2022/02/08 06:54:49;;;;;;;8.30;1.70;;;;;;;6.28;65.07;98564.81;4937752;28;20276;-86
2022/02/08 06:57:15;;;;;;;7.28;1.50;;;;;;;6.18;66.08;98575.44;4937502;28;20246;-85
2022/02/08 06:59:49;;;;;;;5.30;1.65;;;;;;;6.10;66.07;98566.97;4937127;28;20220;-87
2022/02/08 07:02:14;;;;;;;9.48;1.85;;;;;;;6.09;65.95;98555.84;4936437;28;20102;-87
2022/02/08 07:04:39;;;;;;;8.52;2.50;;;;;;;6.23;65.75;98574.09;4952767;28;20244;-86
2022/02/08 07:07:05;;;;;;;9.75;1.95;;;;;;;6.29;66.04;98560.44;4944273;28;20290;-86
2022/02/08 07:09:30;;;;;;;4.15;1.77;;;;;;;6.32;66.33;98576.41;4935411;28;20370;-86
2022/02/08 07:11:57;;;;;;;6.78;1.83;;;;;;;6.15;66.70;98575.81;4952541;28;20720;-86
2022/02/08 07:14:28;;;;;;;7.32;2.00;;;;;;;6.29;66.77;98569.00;4928686;28;20661;-87
2022/02/08 07:16:53;;;;;;;5.72;1.52;;;;;;;6.32;66.01;98565.25;4935421;28;20583;-88
2022/02/08 07:19:19;;;;;;;8.10;1.98;;;;;;;6.38;66.19;98565.31;4916567;28;20170;-87
2022/02/08 07:21:44;;;;;;;11.88;2.33;;;;;;;6.24;66.30;98566.16;4933234;28;20188;-86
2022/02/08 07:24:11;;;;;;;10.85;2.10;;;;;;;6.40;65.95;98577.28;4968326;28;20203;-87
2022/02/08 07:26:37;;;;;;;6.57;1.65;;;;;;;6.44;66.43;98576.72;4932387;28;20294;-88
2022/02/08 07:29:02;;;;;;;9.02;1.65;;;;;;;6.43;66.04;98554.44;4946370;28;20759;-87
2022/02/08 07:31:36;;;;;;;7.80;1.75;;;;;;;6.29;66.42;98552.66;4934795;28;20215;-87
2022/02/08 07:34:18;;;;;;;8.05;2.22;;;;;;;6.36;65.79;98569.88;4936277;28;20105;-87
2022/02/08 07:36:55;;;;;;;6.65;1.33;;;;;;;6.44;65.56;98579.31;4966550;28;20191;-87
2022/02/08 07:39:34;;;;;;;12.20;1.85;;;;;;;6.61;64.86;98592.03;4952144;28;20738;-87
2022/02/08 07:42:00;;;;;;;7.78;1.58;;;;;;;6.72;64.76;98587.19;4931783;28;20634;-85
2022/02/08 07:44:25;;;;;;;5.07;1.80;;;;;;;6.83;64.94;98598.81;4949561;28;20170;-85
2022/02/08 07:46:50;;;;;;;11.95;2.15;;;;;;;6.72;64.90;98591.56;4952901;28;20522;-88
2022/02/08 07:49:16;;;;;;;7.70;1.30;;;;;;;6.71;65.13;98590.72;4941546;28;20094;-87
2022/02/08 07:51:42;;;;;;;6.20;1.92;;;;;;;6.70;64.92;98583.16;4933811;28;20185;-86
2022/02/08 07:54:08;;;;;;;5.53;1.90;;;;;;;6.78;64.36;98580.44;4968405;28;20745;-85
2022/02/08 07:56:33;;;;;;;6.53;1.80;;;;;;;6.81;64.24;98582.69;4934388;28;20381;-85
2022/02/08 07:59:00;;;;;;;7.55;1.67;;;;;;;6.81;64.37;98603.38;4935536;28;20658;-87
2022/02/08 08:01:25;;;;;;;10.63;2.58;;;;;;;6.88;63.92;98606.03;4951702;28;20319;-85
2022/02/08 08:03:51;;;;;;;6.45;1.98;;;;;;;6.87;64.11;98605.25;4934251;28;20631;-86
2022/02/08 08:06:17;;;;;;;7.57;2.22;;;;;;;6.83;64.12;98609.16;4951656;28;20900;-86
2022/02/08 08:08:43;;;;;;;5.88;2.13;;;;;;;7.02;63.79;98614.72;4934763;28;20345;-86
2022/02/08 08:11:11;;;;;;;4.72;1.55;;;;;;;6.89;64.22;98616.22;4934394;28;20189;-86
2022/02/08 08:19:04;;;;;;;8.48;2.55;;;;;;;6.81;65.86;98608.56;4969968;28;20721;-86
2022/02/08 08:21:30;;;;;;;5.30;1.77;;;;;;;6.77;65.81;98607.34;4968506;28;20268;-87
2022/02/08 08:23:56;;;;;;;7.80;1.95;;;;;;;6.80;66.39;98606.94;4921464;28;20218;-89
2022/02/08 08:26:22;;;;;;;15.80;1.90;;;;;;;6.60;67.36;98601.59;4928139;28;20169;-87
2022/02/08 08:28:47;;;;;;;10.43;2.75;;;;;;;6.43;67.79;98595.81;4921246;28;20209;-87
2022/02/08 08:31:14;;;;;;;7.57;1.75;;;;;;;6.49;67.61;98608.03;4935371;28;20238;-86
2022/02/08 08:33:42;;;;;;;3.97;1.33;;;;;;;6.50;67.38;98609.63;4936918;28;20255;-88
2022/02/08 08:36:10;;;;;;;5.78;1.52;;;;;;;6.68;67.61;98624.78;4921787;28;20650;-88
2022/02/08 08:38:36;;;;;;;8.88;2.28;;;;;;;6.66;67.18;98623.34;4925660;28;20110;-87
2022/02/08 08:41:11;;;;;;;8.18;1.88;;;;;;;6.46;68.70;98623.94;4951379;28;20612;-88
2022/02/08 08:51:33;;;;;;;8.25;2.75;;;;;;;6.53;69.37;98629.19;4952102;28;20584;-87
2022/02/08 08:53:59;;;;;;;9.00;2.22;;;;;;;6.40;69.21;98629.81;4942151;28;20239;-88
2022/02/08 08:56:24;;;;;;;9.57;2.05;;;;;;;6.54;69.48;98623.00;4949686;28;20212;-87
2022/02/08 08:58:49;;;;;;;11.48;2.05;;;;;;;6.66;68.91;98618.97;4950009;28;20274;-86
2022/02/08 09:01:15;;;;;;;6.50;2.28;;;;;;;6.60;68.95;98601.59;4935250;28;20239;-88
2022/02/08 09:03:41;;;;;;;5.25;1.73;;;;;;;6.66;69.11;98607.81;4926492;28;20295;-86
2022/02/08 09:06:07;;;;;;;6.80;1.88;;;;;;;6.48;70.46;98609.03;4930815;28;20704;-87
2022/02/08 09:08:35;;;;;;;3.70;1.42;;;;;;;6.63;69.73;98610.75;4932003;28;20268;-86
2022/02/08 09:11:13;;;;;;;7.10;2.67;;;;;;;6.60;70.05;98606.75;4949677;28;20154;-88
2022/02/08 09:13:45;;;;;;;4.90;1.35;;;;;;;6.53;69.71;98596.34;4932735;28;20607;-86
2022/02/08 09:21:43;;;;;;;10.30;1.85;;;;;;;6.53;70.04;98604.09;4937075;28;20243;-86
2022/02/08 09:32:42;;;;;;;5.72;2.05;;;;;;;6.68;70.44;98618.78;4964148;28;20292;-86
2022/02/08 09:34:57;;;;;;;5.85;2.20;;;;;;;6.61;70.71;98612.72;4949302;28;20268;-87
2022/02/08 09:37:22;;;;;;;7.00;1.75;;;;;;;6.58;71.06;98611.31;4933668;28;20306;-86
2022/02/08 09:39:51;;;;;;;5.50;2.13;;;;;;;6.66;70.98;98618.16;4966005;28;20247;-87
2022/02/08 09:42:17;;;;;;;5.63;1.83;;;;;;;6.59;71.16;98606.94;4944915;28;20280;-88
2022/02/08 09:44:42;;;;;;;5.57;2.45;;;;;;;6.57;71.45;98610.50;4929768;28;20302;-86
2022/02/08 09:47:12;;;;;;;5.95;2.05;;;;;;;6.55;71.77;98611.69;4918312;28;20389;-85
2022/02/08 09:49:42;;;;;;;3.88;1.48;;;;;;;6.47;71.88;98586.72;4942474;28;20103;-85
2022/02/08 09:52:08;;;;;;;8.10;2.97;;;;;;;6.64;71.72;98600.22;4948716;28;20227;-85
2022/02/08 09:54:34;;;;;;;6.57;1.63;;;;;;;6.80;71.06;98601.78;4949680;28;20294;-86
2022/02/08 09:57:04;;;;;;;4.80;2.13;;;;;;;6.46;72.15;98595.47;4939102;28;20209;-88
2022/02/08 09:59:29;;;;;;;5.18;1.40;;;;;;;6.65;71.96;98609.59;4926758;28;20496;-85
2022/02/08 10:01:57;;;;;;;6.30;1.90;;;;;;;6.70;71.22;98602.09;4916190;28;20273;-86
2022/02/08 10:04:23;;;;;;;2.85;1.60;;;;;;;6.75;71.45;98609.28;4929041;28;20247;-85
2022/02/08 10:06:48;;;;;;;6.15;2.00;;;;;;;6.74;71.30;98612.88;4925912;28;20762;-85
2022/02/08 10:09:14;;;;;;;6.70;1.95;;;;;;;6.70;71.30;98603.84;4915115;28;20198;-84
2022/02/08 10:11:55;;;;;;;6.22;2.00;;;;;;;6.64;71.94;98618.34;4946156;28;20320;-86
2022/02/08 10:22:31;;;;;;;4.85;2.60;;;;;;;6.66;71.48;98618.97;4940700;28;20285;-87
2022/02/08 10:25:03;;;;;;;5.32;2.50;;;;;;;6.50;72.60;98619.19;4917572;28;20727;-88
2022/02/08 10:27:32;;;;;;;7.43;3.22;;;;;;;6.87;71.76;98615.59;4934277;28;20193;-85
2022/02/08 10:38:07;;;;;;;8.93;2.90;;;;;;;6.96;70.98;98618.03;4968297;28;20677;-86
2022/02/08 10:40:36;;;;;;;8.98;4.68;;;;;;;6.87;72.57;98617.38;4966134;28;20294;-86
2022/02/08 10:43:05;;;;;;;6.65;3.35;;;;;;;6.93;72.26;98621.81;4916961;28;20275;-85
2022/02/08 10:45:35;;;;;;;4.97;2.60;;;;;;;6.95;71.83;98619.84;4931241;28;20235;-85
2022/02/08 10:48:06;;;;;;;9.82;4.00;;;;;;;6.92;71.87;98620.22;4910373;28;20208;-86
2022/02/08 10:50:35;;;;;;;8.40;3.88;;;;;;;7.17;71.47;98625.81;4946268;28;20702;-85
2022/02/08 10:53:03;;;;;;;10.80;4.03;;;;;;;7.24;71.05;98613.72;4933600;28;20200;-85
2022/02/08 11:03:06;;;;;;;10.18;4.20;;;;;;;7.23;71.35;98609.53;4967557;28;20196;-86
2022/02/08 11:08:28;;;;;;;6.82;3.50;;;;;;;7.04;72.09;98589.44;4948982;28;20198;-86
2022/02/08 11:11:24;;;;;;;9.45;4.65;;;;;;;6.94;72.39;98587.97;4935834;28;20157;-86
2022/02/08 11:17:10;;;;;;;9.02;3.85;;;;;;;7.10;72.38;98591.28;4968233;28;20781;-86
2022/02/08 11:22:36;;;;;;;8.52;4.50;;;;;;;7.32;71.60;98592.88;4951021;28;20294;-86
2022/02/08 11:25:10;;;;;;;6.63;3.97;;;;;;;7.41;71.83;98590.13;4920776;28;20246;-86
2022/02/08 11:27:38;;;;;;;11.82;5.05;;;;;;;7.54;71.44;98595.41;4922530;28;20192;-85
2022/02/08 11:30:15;;;;;;;7.85;4.72;;;;;;;7.47;71.94;98597.16;4934417;28;20559;-84
2022/02/08 11:49:27;;;;;;;10.13;4.88;;;;;;;7.75;71.43;98586.78;4952078;28;20203;-85
2022/02/08 11:51:58;;;;;;;11.60;5.13;;;;;;;7.72;71.91;98588.94;4968699;28;20215;-85
2022/02/08 12:05:00;;;;;;;9.32;4.10;;;;;;;8.10;71.11;98581.53;4946392;28;20205;-85
2022/02/08 12:07:26;;;;;;;9.45;4.68;;;;;;;8.12;71.57;98584.75;4947443;28;20210;-85
2022/02/08 12:10:06;;;;;;;10.30;3.83;;;;;;;8.12;70.88;98578.75;4956721;28;20661;-85
2022/02/08 12:13:03;;;;;;;6.72;3.53;;;;;;;8.01;71.47;98585.31;4950908;28;20248;-86
2022/02/08 14:02:30;;;;;;;8.75;3.72;;;;;;;8.69;70.85;98514.44;4962863;28;20232;-84
2022/02/08 14:05:53;;;;;;;5.50;2.92;;;;;;;8.56;71.85;98510.84;4932961;28;20353;-85
2022/02/08 14:07:58;;;;;;;;;;;;;;;8.50;71.52;98509.06;4943294;28;20632;-85
2022/02/08 14:10:44;;;;;;;5.45;3.60;;;;;;;8.67;71.48;98506.88;4917420;28;20020;-85
2022/02/08 14:16:01;;;;;;;7.72;3.60;;;;;;;8.76;70.77;98505.66;4965327;28;20591;-85
2022/02/08 14:21:07;;;;;;;;;;;;;;;;;;;;;
2022/02/08 14:23:53;;;;;;;5.82;3.58;;;;;;;8.80;70.97;98509.47;4933468;28;20188;-85
2022/02/08 14:31:46;;;;;;;;;;;;;;;;;;;;;
2022/02/08 15:09:31;;;;;;;3.85;2.50;;;;;;;9.09;71.18;98528.25;4924502;28;20639;-84
2022/02/08 15:14:45;;;;;;;3.75;2.28;;;;;;;8.99;71.49;98528.63;4954228;28;20204;-85
2022/02/08 15:17:11;;;;;;;3.85;3.03;;;;;;;9.15;70.74;98529.22;4948406;28;20362;-85
2022/02/08 15:19:38;;;;;;;6.75;2.53;;;;;;;9.17;71.09;98533.25;4953135;28;20249;-84
2022/02/08 15:22:05;;;;;;;3.40;2.40;;;;;;;9.17;70.80;98529.84;4953271;28;20174;-85
2022/02/08 15:24:30;;;;;;;5.88;3.08;;;;;;;9.18;70.75;98529.66;4935844;28;20245;-85
2022/02/08 15:26:56;;;;;;;4.70;3.00;;;;;;;9.24;70.93;98527.25;4953002;28;20204;-85
2022/02/08 15:29:24;;;;;;;3.25;2.60;;;;;;;9.12;70.73;98524.44;4939690;28;20166;-86
2022/02/08 15:31:50;;;;;;;5.22;2.63;;;;;;;9.21;70.48;98536.22;4936114;28;20354;-85
2022/02/08 15:34:15;;;;;;;3.67;2.45;;;;;;;9.15;70.67;98535.25;4952223;28;20635;-85
2022/02/08 15:36:41;;;;;;;3.83;2.50;;;;;;;9.22;70.96;98539.63;4923680;28;20204;-84
2022/02/08 15:39:08;;;;;;;3.38;2.63;;;;;;;9.25;70.55;98537.41;4936356;28;20290;-85
2022/02/08 15:41:39;;;;;;;4.68;2.85;;;;;;;9.08;70.16;98541.44;4933650;28;20273;-85
2022/02/08 15:44:11;;;;;;;6.18;3.03;;;;;;;9.09;70.81;98543.84;4958268;28;20203;-85
2022/02/08 15:46:36;;;;;;;3.45;2.97;;;;;;;9.23;71.10;98546.44;4935048;28;20654;-85
2022/02/08 15:49:02;;;;;;;6.28;3.53;;;;;;;9.23;71.15;98547.22;4942117;28;20196;-85
2022/02/08 15:51:33;;;;;;;4.57;3.10;;;;;;;9.22;70.53;98550.00;4933980;28;20370;-85
2022/02/08 15:56:51;;;;;;;5.10;3.23;;;;;;;9.25;70.36;98552.22;4965164;28;20591;-85
2022/02/08 16:07:14;;;;;;;5.88;3.53;;;;;;;9.25;70.35;98560.00;4950974;28;20647;-85
2022/02/08 16:12:31;;;;;;;5.60;3.88;;;;;;;9.31;70.90;98559.22;4967073;28;20757;-85
2022/02/08 16:15:26;;;;;;;4.22;3.20;;;;;;;9.31;70.32;98549.63;4934967;28;20252;-85
2022/02/08 16:28:26;;;;;;;5.63;4.47;;;;;;;9.29;71.01;98550.84;4895783;28;20200;-85
2022/02/08 17:00:47;;;;;;;5.93;4.80;;;;;;;9.37;71.33;98548.00;4959528;28;20299;-85
2022/02/08 17:03:12;;;;;;;7.70;5.50;;;;;;;9.37;70.87;98548.00;4916717;28;20294;-85
2022/02/08 17:05:38;;;;;;;9.50;5.38;;;;;;;9.31;71.05;98541.81;4933235;28;20828;-85
2022/02/08 17:08:03;;;;;;;7.35;5.57;;;;;;;9.31;71.12;98546.22;4949142;28;20211;-85
2022/02/08 17:10:36;;;;;;;9.07;5.63;;;;;;;9.35;71.07;98552.59;4932214;28;20239;-85
2022/02/08 17:14:11;;;;;;;8.98;5.13;;;;;;;9.30;70.79;98557.59;4948771;28;20200;-85
2022/02/08 17:45:40;;;;;;;8.32;5.45;;;;;;;9.21;71.07;98557.03;4965454;28;20269;-85
2022/02/08 17:48:00;;;;;;;9.65;6.38;;;;;;;9.21;71.23;98554.41;4965383;28;20278;-85
2022/02/08 17:50:25;;;;;;;9.95;6.10;;;;;;;9.21;71.39;98549.22;4947701;28;20185;-85
2022/02/08 17:52:52;;;;;;;8.20;5.47;;;;;;;9.26;71.32;98564.22;4947190;28;20748;-86
2022/02/08 17:55:20;;;;;;;8.23;5.47;;;;;;;9.17;71.26;98554.03;4947016;28;20168;-85
2022/02/08 17:57:45;;;;;;;8.38;5.32;;;;;;;9.26;71.42;98561.63;4936470;28;20189;-85
2022/02/08 18:00:13;;;;;;;8.93;5.15;;;;;;;9.25;71.09;98550.41;4931217;28;20215;-85
2022/02/08 18:02:40;;;;;;;7.90;5.55;;;;;;;9.33;70.85;98557.22;4931556;28;20173;-85
2022/02/08 18:05:07;;;;;;;7.13;5.68;;;;;;;9.32;70.84;98556.41;4931879;28;20281;-85
2022/02/08 18:07:33;;;;;;;8.20;5.85;;;;;;;9.39;70.79;98569.41;4947461;28;20305;-85
2022/02/08 18:10:01;;;;;;;7.65;4.88;;;;;;;9.38;70.76;98562.59;4947010;28;20273;-85
2022/02/08 18:12:28;;;;;;;8.57;5.38;;;;;;;9.34;71.09;98571.81;4912278;28;20173;-85
2022/02/08 18:14:57;;;;;;;8.05;5.30;;;;;;;9.31;71.01;98567.81;4937904;28;20290;-85
2022/02/08 18:17:30;;;;;;;6.05;4.85;;;;;;;9.38;71.04;98573.78;4948319;28;20174;-85
2022/02/08 18:20:11;;;;;;;7.15;5.45;;;;;;;9.32;70.71;98571.19;4926855;28;20102;-85
2022/02/08 19:07:55;;;;;;;12.80;8.23;;;;;;;9.47;70.86;98595.19;4932573;28;20291;-86
2022/02/08 19:11:14;;;;;;;14.27;9.02;;;;;;;9.45;70.72;98592.00;4948826;28;20209;-85
2022/02/08 19:16:30;;;;;;;10.10;8.30;;;;;;;9.54;70.54;98580.41;4928367;28;20716;-84
2022/02/08 19:23:32;;;;;;;7.90;6.07;;;;;;;9.60;70.40;98591.00;4961830;28;20247;-85
2022/02/08 19:25:57;;;;;;;7.60;6.30;;;;;;;9.55;70.63;98591.59;4948438;28;20126;-85
2022/02/08 19:28:23;;;;;;;8.35;6.43;;;;;;;9.51;70.57;98588.59;4932920;28;20207;-85
2022/02/08 19:30:48;;;;;;;7.00;5.50;;;;;;;9.49;71.37;98577.59;4947709;28;20280;-85
2022/02/08 19:33:13;;;;;;;9.13;5.97;;;;;;;9.57;71.07;98577.38;4947420;28;20194;-85
2022/02/08 19:35:41;;;;;;;10.25;7.93;;;;;;;9.47;70.48;98579.56;4933546;28;20282;-85
2022/02/08 19:38:10;;;;;;;13.40;9.15;;;;;;;9.63;70.61;98582.75;4949104;28;20356;-85
2022/02/08 19:40:35;;;;;;;10.25;6.55;;;;;;;9.61;70.55;98588.16;4966658;28;20802;-85
2022/02/08 19:43:00;;;;;;;9.63;7.50;;;;;;;9.67;70.88;98586.56;4945875;28;20250;-85
2022/02/08 19:45:27;;;;;;;9.82;5.97;;;;;;;9.49;70.60;98588.00;4947226;28;20700;-85
2022/02/08 19:47:52;;;;;;;7.57;6.13;;;;;;;9.50;70.84;98594.00;4946293;28;20288;-85
2022/02/08 19:50:18;;;;;;;17.65;11.20;;;;;;;9.54;70.84;98596.00;4916893;28;20284;-85
2022/02/08 19:52:44;;;;;;;8.73;6.43;;;;;;;9.59;71.00;98597.19;4947606;28;20185;-85
2022/02/08 19:55:31;;;;;;;9.43;6.10;;;;;;;9.57;70.72;98597.38;4949636;28;20187;-85
2022/02/08 19:57:57;;;;;;;10.13;6.53;;;;;;;9.59;70.39;98599.78;4947409;28;20208;-85
2022/02/08 20:00:29;;;;;;;9.88;6.93;;;;;;;9.59;70.51;98597.19;4948298;28;20186;-85
2022/02/08 20:02:57;;;;;;;7.63;5.65;;;;;;;9.51;70.49;98590.38;4964216;28;20267;-85
2022/02/08 20:05:28;;;;;;;7.40;5.70;;;;;;;9.49;70.98;98592.38;4964519;28;20307;-85